Roches Point, Ireland

3:35 PM IST on August 04, 2015 (GMT +0100)
Cork | | Change Station
CLOSE
Current Station
Personal Weather Station
Location: Cork, Cork
Elevation: 60 ft
Nearby Weather Stations

Elev 60 ft 51.90 °N, 8.40 °W | Updated 20 seconds ago

Mostly Cloudy
Mostly Cloudy
60.4 °F
Feels Like 60.4 °F
N
14.0
Wind Variable Wind from WNW
Gusts 20.0 mph

Today
High -- | Low -- °F
--% Chance of Precip.
Yesterday
High -- | Low -- °F
Precip. -- in
5:59 AM 9:17 PM
Waning Gibbous, 77% visible
Pressure 29.80 in
Visibility 6.2 miles
Clouds Mostly Cloudy 1400 ft
Mostly Cloudy 3000 ft
Dew Point Not available.
Humidity Not available.
Rainfall 0.00 in
Snow Depth Not available.
UV 4 out of 12
Pollen Not available.
Air Quality Not available.
Flu Activity Not available.
METAR EICK 041430Z 24015KT 9999 BKN014 BKN030 14/12 Q1009 NOSIG

More Conditions Fewer Conditions

Pressure 29.80 in
Visibility 6.2 miles
Clouds Mostly Cloudy 1400 ft
Mostly Cloudy 3000 ft
Dew Point Not available.
Humidity Not available.
Rainfall 0.00 in
Snow Depth Not available.
UV 4 out of 12
Pollen Not available.
Air Quality Not available.
Flu Activity Not available.
METAR EICK 041430Z 24015KT 9999 BKN014 BKN030 14/12 Q1009 NOSIG

More Conditions Fewer Conditions

10-Day Weather Forecast

×

Almanac

Astronomy

Aug. 04, 2015 Rise Set
Actual Time
Civil Twilight
Nautical Twilight
Astronomical Twilight
Moon
Length of Visible Light
Length of Day
Tomorrow will be .
, % of the Moon is Illuminated

Today's Extremes

Country Highs Country Lows

Community

WunderPhotos

Upload Photos

1,843,921 photos uploaded!

WunderBlogs® & News

Nearby

Air Quality

  Air Quality AQ Index Pollutant
Not available.

Snow Depth

Station Depth Elevation

Earthquake Activity

City Distance Mag. Time & Date
Minimum magnitude displayed is 2.5.

Coastal Water Temperatures

Place Temperature

Stations

Nearby Weather Stations

Station Location Temp. Windchill Dew Point Humidity Wind Precip. Elev Updated Type